Time;durP1;ratioP1;P1;durP2;ratioP2;P2;SDS_P1;SDS_P2;PMS_P1;PMS_P2;Temp;Humidity;BMP_temperature;BMP_pressure;BME280_temperature;BME280_humidity;BME280_pressure;Samples;Min_cycle;Max_cycle;Signal;HPM_P1;HPM_P2
2022/08/08 00:00:00;;;;;;;3.70;2.10;;;26.90;51.30;;;;;;6246343;22;20015;-64
2022/08/08 00:02:25;;;;;;;4.97;2.25;;;26.90;51.70;;;;;;6245725;23;20008;-64
2022/08/08 00:05:11;;;;;;;4.22;2.10;;;26.90;51.70;;;;;;6246000;23;20058;-66
2022/08/08 00:07:51;;;;;;;5.55;2.50;;;26.90;52.00;;;;;;6245755;22;20058;-64
2022/08/08 00:10:21;;;;;;;3.05;2.20;;;26.80;51.70;;;;;;6245989;22;20446;-63
2022/08/08 00:12:54;;;;;;;3.03;2.10;;;26.80;51.80;;;;;;6245461;22;20016;-63
2022/08/08 00:15:36;;;;;;;5.18;2.30;;;26.80;51.50;;;;;;6244222;23;20423;-64
2022/08/08 00:18:21;;;;;;;3.40;2.10;;;26.80;51.80;;;;;;6245767;22;19996;-65
2022/08/08 00:20:55;;;;;;;3.40;2.30;;;26.80;51.80;;;;;;6245574;22;20012;-65
2022/08/08 00:23:34;;;;;;;3.22;1.77;;;26.80;51.80;;;;;;6245730;22;20067;-65
2022/08/08 00:26:02;;;;;;;3.70;2.33;;;26.70;51.60;;;;;;6245673;22;20088;-64
2022/08/08 00:28:36;;;;;;;7.25;2.28;;;26.70;51.60;;;;;;6245678;22;20024;-66
2022/08/08 00:31:15;;;;;;;3.05;2.17;;;26.70;51.20;;;;;;6245987;22;20428;-65
2022/08/08 00:33:50;;;;;;;6.57;2.00;;;26.70;51.20;;;;;;6246142;22;20000;-69
2022/08/08 00:36:29;;;;;;;2.90;2.25;;;26.70;51.30;;;;;;6245387;22;20031;-67
2022/08/08 00:39:12;;;;;;;6.18;2.42;;;26.70;51.30;;;;;;6245408;22;20000;-76
2022/08/08 00:42:18;;;;;;;2.88;2.00;;;26.70;51.50;;;;;;6245536;22;20008;-63
2022/08/08 00:45:13;;;;;;;7.20;2.35;;;26.60;51.50;;;;;;6245105;23;20008;-64
2022/08/08 00:47:57;;;;;;;4.72;2.60;;;26.60;50.90;;;;;;6242066;23;20050;-64
2022/08/08 00:50:53;;;;;;;3.97;2.17;;;26.60;50.60;;;;;;6245341;22;20023;-64
2022/08/08 00:53:38;;;;;;;3.75;2.33;;;26.60;50.70;;;;;;6245449;22;20007;-76
2022/08/08 00:56:36;;;;;;;3.35;2.08;;;26.60;51.30;;;;;;6245644;22;20011;-64
2022/08/08 00:59:19;;;;;;;5.60;2.30;;;26.50;51.10;;;;;;6225489;23;20034;-63
2022/08/08 01:02:38;;;;;;;4.43;2.42;;;26.50;51.00;;;;;;6242666;23;20015;-63
2022/08/08 01:05:16;;;;;;;6.28;2.35;;;26.50;51.10;;;;;;6210726;23;20016;-71
2022/08/08 01:07:47;;;;;;;2.33;2.05;;;26.50;51.30;;;;;;6245364;23;20030;-70
2022/08/08 01:10:55;;;;;;;2.65;2.15;;;26.50;51.20;;;;;;6245472;23;20003;-68
2022/08/08 01:13:28;;;;;;;3.78;2.15;;;26.50;51.40;;;;;;6240506;23;20008;-66
2022/08/08 01:16:05;;;;;;;4.55;2.00;;;26.50;51.40;;;;;;6245469;23;20112;-64
2022/08/08 01:18:52;;;;;;;2.97;2.13;;;26.40;51.10;;;;;;6245309;23;20007;-63
2022/08/08 01:21:55;;;;;;;3.63;2.30;;;26.40;51.10;;;;;;6244840;22;20454;-63
2022/08/08 01:24:47;;;;;;;5.47;2.10;;;26.50;50.90;;;;;;6245589;23;20032;-63
2022/08/08 01:27:20;;;;;;;;;;;26.40;51.00;;;;;;6247603;23;20016;-65
2022/08/08 01:30:24;;;;;;;3.55;2.10;;;26.40;51.20;;;;;;6247162;22;20305;-67
2022/08/08 01:33:26;;;;;;;6.57;2.25;;;26.40;51.60;;;;;;6247179;23;20000;-64
2022/08/08 01:36:04;;;;;;;3.38;2.00;;;26.30;51.10;;;;;;6247062;23;20004;-73
2022/08/08 01:38:54;;;;;;;4.75;2.20;;;26.30;50.80;;;;;;6247005;23;20418;-68
2022/08/08 01:41:46;;;;;;;4.00;2.10;;;26.30;51.10;;;;;;6247125;23;20000;-68
2022/08/08 01:44:35;;;;;;;4.63;2.17;;;26.30;50.90;;;;;;6247331;23;20419;-64
2022/08/08 01:47:25;;;;;;;3.67;2.22;;;26.30;51.10;;;;;;6245524;23;20018;-63
2022/08/08 01:50:03;;;;;;;8.75;2.53;;;26.30;51.10;;;;;;6247663;22;19996;-63
2022/08/08 01:52:44;;;;;;;5.35;1.88;;;26.30;51.00;;;;;;6246879;22;20011;-64
2022/08/08 01:55:29;;;;;;;6.97;2.20;;;26.30;51.10;;;;;;6246810;22;20000;-64
2022/08/08 01:58:22;;;;;;;3.67;2.17;;;26.30;51.00;;;;;;6247517;22;20023;-66
2022/08/08 02:00:54;;;;;;;2.83;2.15;;;26.30;51.10;;;;;;6247042;23;20004;-66
2022/08/08 02:03:30;;;;;;;2.85;2.10;;;26.30;51.10;;;;;;6246976;23;20003;-64
2022/08/08 02:05:55;;;;;;;3.38;2.15;;;26.20;51.00;;;;;;6246966;23;20013;-64
2022/08/08 02:09:01;;;;;;;3.45;1.90;;;26.20;50.80;;;;;;6247041;23;20038;-64
2022/08/08 02:11:38;;;;;;;3.60;2.00;;;26.20;50.70;;;;;;6247046;22;20419;-63
2022/08/08 02:14:32;;;;;;;3.35;2.03;;;26.20;50.60;;;;;;6246902;22;20004;-69
2022/08/08 02:17:10;;;;;;;3.42;2.00;;;26.20;50.60;;;;;;6244916;23;20014;-73
2022/08/08 02:19:55;;;;;;;4.72;2.00;;;26.20;50.70;;;;;;6246798;23;20004;-68
2022/08/08 02:22:32;;;;;;;2.92;2.20;;;26.20;50.90;;;;;;6246832;22;20693;-63
2022/08/08 02:25:19;;;;;;;4.72;1.98;;;26.10;50.90;;;;;;6246535;22;20042;-71
2022/08/08 02:28:04;;;;;;;6.20;2.00;;;26.10;51.00;;;;;;6246636;22;20340;-67
2022/08/08 02:30:29;;;;;;;3.70;1.92;;;26.10;51.20;;;;;;6246983;22;20000;-64
2022/08/08 02:33:28;;;;;;;4.32;2.00;;;26.10;51.60;;;;;;6246809;23;20058;-77
2022/08/08 02:36:05;;;;;;;5.38;2.17;;;26.10;51.50;;;;;;6246449;23;20000;-66
2022/08/08 02:38:54;;;;;;;2.65;1.92;;;26.00;51.30;;;;;;6246184;23;20004;-67
2022/08/08 02:41:56;;;;;;;2.78;2.10;;;26.00;51.10;;;;;;6246980;22;20012;-64
2022/08/08 02:44:52;;;;;;;3.63;2.25;;;26.00;50.70;;;;;;6246530;23;20123;-72
2022/08/08 02:47:29;;;;;;;7.60;2.40;;;26.00;50.70;;;;;;6246389;23;20016;-65
2022/08/08 02:50:07;;;;;;;4.15;2.08;;;26.00;51.00;;;;;;6246407;23;20373;-70
2022/08/08 02:52:52;;;;;;;4.30;1.95;;;26.00;51.10;;;;;;6246266;23;20015;-67
2022/08/08 02:55:32;;;;;;;4.75;2.17;;;26.00;51.20;;;;;;6246622;23;20075;-63
2022/08/08 02:58:33;;;;;;;3.22;1.90;;;26.00;51.20;;;;;;6246474;23;20030;-64
2022/08/08 03:01:17;;;;;;;2.33;1.92;;;26.00;51.10;;;;;;6213502;23;20041;-69
2022/08/08 03:04:01;;;;;;;2.42;1.92;;;26.00;51.10;;;;;;6243713;23;20004;-70
2022/08/08 03:06:45;;;;;;;3.70;1.92;;;25.90;51.10;;;;;;6246358;23;20439;-63
2022/08/08 03:09:30;;;;;;;4.28;2.17;;;25.90;51.10;;;;;;6246270;23;20000;-64
2022/08/08 03:12:32;;;;;;;2.92;1.83;;;25.90;51.10;;;;;;6246502;23;20000;-67
2022/08/08 03:15:31;;;;;;;2.83;2.10;;;26.00;51.30;;;;;;6246330;23;20014;-63
2022/08/08 03:18:09;;;;;;;3.28;1.77;;;25.90;51.30;;;;;;6246436;23;20050;-64
2022/08/08 03:20:52;;;;;;;3.60;2.35;;;25.90;51.40;;;;;;6246081;22;20449;-63
2022/08/08 03:23:21;;;;;;;2.58;2.25;;;25.90;51.30;;;;;;6246704;22;20090;-63
2022/08/08 03:25:48;;;;;;;6.78;2.38;;;25.90;51.40;;;;;;6244438;23;20327;-64
2022/08/08 03:28:45;;;;;;;3.83;2.17;;;25.90;51.70;;;;;;6246365;22;20020;-63
2022/08/08 03:33:56;;;;;;;3.50;2.42;;;25.90;52.40;;;;;;6246345;23;20039;-64
2022/08/08 03:36:23;;;;;;;7.70;2.30;;;25.80;52.10;;;;;;6245980;23;20323;-64
2022/08/08 03:38:51;;;;;;;3.25;2.38;;;25.80;52.00;;;;;;6246345;22;20392;-69
2022/08/08 03:41:17;;;;;;;5.63;2.20;;;25.80;51.70;;;;;;6246563;22;20008;-70
2022/08/08 03:43:55;;;;;;;7.85;2.60;;;25.80;51.80;;;;;;6245685;22;20004;-70
2022/08/08 03:46:21;;;;;;;3.08;2.45;;;25.80;52.00;;;;;;6246178;22;20012;-66
2022/08/08 03:48:57;;;;;;;3.00;2.10;;;25.80;51.90;;;;;;6245742;23;20312;-63
2022/08/08 03:51:23;;;;;;;7.22;2.55;;;25.80;52.00;;;;;;6246398;22;20083;-63
2022/08/08 03:53:53;;;;;;;3.13;2.13;;;25.80;51.90;;;;;;6246251;22;20015;-69
2022/08/08 03:56:20;;;;;;;4.20;2.55;;;25.70;51.80;;;;;;6245778;22;20011;-67
2022/08/08 03:58:52;;;;;;;4.72;2.38;;;25.80;51.90;;;;;;6245516;22;20003;-64
2022/08/08 04:01:19;;;;;;;3.33;2.35;;;25.80;51.80;;;;;;6246295;22;20036;-63
2022/08/08 04:03:47;;;;;;;5.00;2.20;;;25.70;51.60;;;;;;6245959;23;20426;-63
2022/08/08 04:06:14;;;;;;;2.28;2.00;;;25.70;51.60;;;;;;6246044;22;20008;-66
2022/08/08 04:08:41;;;;;;;4.95;2.30;;;25.70;51.60;;;;;;6246002;22;20009;-67
2022/08/08 04:11:07;;;;;;;3.55;2.50;;;25.70;51.80;;;;;;6245416;22;20091;-64
2022/08/08 04:13:34;;;;;;;4.18;2.35;;;25.70;51.80;;;;;;6245776;22;20370;-76
2022/08/08 04:15:59;;;;;;;5.57;2.28;;;25.70;51.80;;;;;;6246006;22;20010;-63
2022/08/08 04:18:26;;;;;;;8.38;2.30;;;25.70;51.60;;;;;;6245695;23;20008;-75
2022/08/08 04:20:51;;;;;;;3.63;2.28;;;25.70;51.50;;;;;;6245796;23;20471;-69
2022/08/08 04:23:17;;;;;;;5.00;2.30;;;25.70;51.30;;;;;;6245720;23;20032;-65
2022/08/08 04:25:43;;;;;;;5.60;2.33;;;25.70;52.00;;;;;;6245612;22;20015;-63
2022/08/08 04:28:09;;;;;;;8.68;2.30;;;25.80;51.60;;;;;;6245396;22;20020;-64
2022/08/08 04:30:35;;;;;;;4.15;2.42;;;25.70;51.40;;;;;;6245985;22;19996;-63
2022/08/08 04:33:00;;;;;;;7.07;2.20;;;25.80;51.50;;;;;;6245355;22;20008;-63
2022/08/08 04:35:27;;;;;;;4.90;2.10;;;25.70;51.50;;;;;;6245961;23;20011;-76
2022/08/08 04:37:53;;;;;;;5.45;2.40;;;25.80;51.50;;;;;;6246032;23;20411;-64
2022/08/08 04:40:20;;;;;;;3.47;2.38;;;25.70;51.40;;;;;;6245800;22;20008;-64
2022/08/08 04:42:46;;;;;;;3.08;2.40;;;25.80;51.60;;;;;;6245917;22;20036;-64
2022/08/08 04:45:13;;;;;;;7.25;2.40;;;25.80;51.80;;;;;;6245875;22;20058;-63
2022/08/08 04:47:39;;;;;;;6.13;2.00;;;25.80;51.80;;;;;;6245989;22;20384;-76
2022/08/08 04:50:05;;;;;;;6.53;2.13;;;25.80;51.80;;;;;;6245964;22;20079;-67
2022/08/08 04:52:31;;;;;;;3.03;2.00;;;25.80;51.80;;;;;;6245562;22;20083;-67
2022/08/08 04:54:57;;;;;;;4.68;2.20;;;25.80;51.90;;;;;;6245962;22;20165;-69
2022/08/08 04:57:22;;;;;;;4.07;2.22;;;25.80;51.90;;;;;;6245506;23;20431;-67
2022/08/08 04:59:48;;;;;;;4.75;1.90;;;25.80;51.80;;;;;;6245771;23;20000;-69
2022/08/08 05:02:14;;;;;;;3.67;2.08;;;25.80;52.00;;;;;;6247401;23;20392;-69
2022/08/08 05:04:41;;;;;;;6.88;2.25;;;25.80;52.00;;;;;;6247579;23;20443;-69
2022/08/08 05:07:07;;;;;;;3.70;2.08;;;25.80;52.00;;;;;;6247560;22;20140;-69
2022/08/08 05:09:34;;;;;;;3.22;2.20;;;25.80;51.90;;;;;;6247755;22;20035;-69
2022/08/08 05:12:01;;;;;;;4.68;2.13;;;25.80;52.00;;;;;;6247160;22;20004;-69
2022/08/08 05:14:27;;;;;;;7.95;2.40;;;25.90;52.20;;;;;;6246949;22;20324;-70
2022/08/08 05:16:53;;;;;;;5.78;2.83;;;25.90;52.20;;;;;;6247753;23;20035;-70
2022/08/08 05:19:19;;;;;;;6.50;2.15;;;25.90;52.00;;;;;;6247235;23;20076;-74
2022/08/08 05:21:45;;;;;;;4.47;2.10;;;25.90;52.10;;;;;;6247655;22;20062;-70
2022/08/08 05:24:11;;;;;;;3.67;2.22;;;26.00;52.20;;;;;;6247517;23;20419;-69
2022/08/08 05:26:38;;;;;;;4.00;2.10;;;25.90;52.00;;;;;;6247577;23;20024;-68
2022/08/08 05:29:07;;;;;;;5.45;2.25;;;26.00;52.00;;;;;;6247246;22;20419;-69
2022/08/08 05:31:35;;;;;;;2.95;2.22;;;26.00;52.00;;;;;;6247701;23;20008;-70
2022/08/08 05:34:42;;;;;;;7.00;2.10;;;26.00;52.10;;;;;;6247590;22;20046;-70
2022/08/08 05:37:10;;;;;;;2.10;1.90;;;26.00;52.20;;;;;;6245573;22;20011;-70
2022/08/08 05:39:37;;;;;;;11.32;2.65;;;26.00;52.30;;;;;;6247532;22;20004;-70
2022/08/08 05:42:04;;;;;;;6.88;2.50;;;26.00;52.20;;;;;;6246965;22;20107;-72
2022/08/08 05:44:34;;;;;;;3.03;2.30;;;26.00;52.30;;;;;;6246997;22;20008;-69
2022/08/08 05:47:00;;;;;;;4.63;2.00;;;26.00;52.10;;;;;;6247285;22;20335;-70
2022/08/08 05:49:26;;;;;;;7.07;2.30;;;26.00;51.90;;;;;;6247378;22;20087;-70
2022/08/08 05:51:51;;;;;;;5.57;2.17;;;26.10;52.20;;;;;;6246936;23;20388;-70
2022/08/08 05:54:18;;;;;;;5.03;2.28;;;26.10;52.10;;;;;;6247233;22;20015;-70
2022/08/08 05:56:45;;;;;;;3.35;2.17;;;26.20;52.10;;;;;;6246963;22;20004;-70
2022/08/08 05:59:17;;;;;;;5.45;2.60;;;26.20;52.00;;;;;;6247050;22;20004;-71
2022/08/08 06:01:45;;;;;;;5.30;2.13;;;26.30;52.20;;;;;;6246434;22;20008;-70
2022/08/08 06:04:11;;;;;;;2.88;1.95;;;26.20;52.20;;;;;;6247000;22;20435;-70
2022/08/08 06:06:43;;;;;;;2.58;2.10;;;26.30;51.90;;;;;;6246770;22;20008;-69
2022/08/08 06:09:09;;;;;;;;;;;26.30;51.80;;;;;;6247222;22;20008;-70
2022/08/08 06:11:35;;;;;;;3.95;2.63;;;26.30;51.80;;;;;;6246427;22;19900;-70
2022/08/08 06:14:05;;;;;;;4.20;2.30;;;26.40;51.70;;;;;;6246920;23;20054;-76
2022/08/08 06:16:37;;;;;;;5.53;2.43;;;26.40;51.90;;;;;;6247118;22;20011;-70
2022/08/08 06:19:03;;;;;;;3.20;2.28;;;26.50;52.00;;;;;;6246787;22;20415;-71
2022/08/08 06:21:30;;;;;;;5.95;2.40;;;26.50;51.90;;;;;;6246800;23;20004;-76
2022/08/08 06:23:56;;;;;;;3.33;2.25;;;26.50;51.60;;;;;;6246864;22;20025;-70
2022/08/08 06:26:29;;;;;;;5.28;2.33;;;26.60;51.40;;;;;;6246066;22;20035;-69
2022/08/08 06:29:10;;;;;;;6.38;2.30;;;26.60;51.30;;;;;;6246470;22;20008;-70
2022/08/08 06:31:38;;;;;;;6.30;2.35;;;26.70;51.30;;;;;;6246785;22;20003;-70
2022/08/08 06:34:26;;;;;;;4.47;2.50;;;26.70;51.40;;;;;;6246784;22;20000;-70
2022/08/08 06:36:56;;;;;;;5.90;2.60;;;26.80;51.10;;;;;;6245063;23;20050;-71
2022/08/08 06:39:25;;;;;;;4.40;2.63;;;26.80;51.00;;;;;;6246347;22;20031;-70
2022/08/08 06:42:01;;;;;;;2.50;2.30;;;26.90;50.90;;;;;;6246305;23;20008;-74
2022/08/08 06:44:28;;;;;;;4.00;2.20;;;26.90;50.40;;;;;;6246418;22;20004;-77
2022/08/08 06:46:55;;;;;;;7.03;2.85;;;27.00;50.50;;;;;;6246859;22;20027;-69
2022/08/08 06:49:21;;;;;;;5.10;3.08;;;27.00;50.40;;;;;;6245946;22;19996;-70
2022/08/08 06:51:47;;;;;;;3.75;2.38;;;27.00;50.30;;;;;;6245575;22;20015;-70
2022/08/08 06:54:13;;;;;;;5.85;2.25;;;27.00;50.00;;;;;;6246191;22;20031;-70
2022/08/08 06:56:39;;;;;;;2.75;2.10;;;27.00;50.00;;;;;;6246147;22;20001;-71
2022/08/08 06:59:05;;;;;;;7.78;2.70;;;27.10;50.10;;;;;;6245904;22;20004;-70
2022/08/08 07:01:44;;;;;;;4.05;2.13;;;27.10;50.20;;;;;;6245755;23;20023;-70
2022/08/08 07:04:24;;;;;;;3.00;2.20;;;27.10;50.20;;;;;;6246645;22;20017;-71
2022/08/08 07:06:55;;;;;;;6.82;2.25;;;27.20;49.70;;;;;;6246239;22;20019;-69
2022/08/08 07:09:27;;;;;;;4.18;2.28;;;27.30;49.80;;;;;;6246058;22;20087;-70
2022/08/08 07:11:57;;;;;;;3.42;2.15;;;27.30;50.00;;;;;;6245975;22;20000;-70
2022/08/08 07:14:32;;;;;;;5.93;2.55;;;27.30;49.90;;;;;;6246740;22;20027;-70
2022/08/08 07:17:16;;;;;;;3.65;2.55;;;27.40;50.10;;;;;;6246159;22;20081;-70
2022/08/08 07:19:48;;;;;;;6.38;2.92;;;27.40;50.00;;;;;;6246466;22;20082;-74
2022/08/08 07:22:20;;;;;;;5.97;2.40;;;27.50;49.70;;;;;;6246658;23;20008;-69
2022/08/08 07:24:58;;;;;;;5.78;2.40;;;27.50;49.50;;;;;;6245869;22;20007;-70
2022/08/08 07:27:26;;;;;;;6.97;2.47;;;27.50;49.40;;;;;;6245424;22;20016;-70
2022/08/08 07:29:51;;;;;;;3.33;2.25;;;27.60;49.30;;;;;;6246368;22;20008;-70
2022/08/08 07:32:18;;;;;;;3.17;2.40;;;27.60;49.20;;;;;;6245933;23;20509;-69
2022/08/08 07:34:44;;;;;;;4.30;2.13;;;27.70;49.30;;;;;;6246068;23;20004;-70
2022/08/08 07:37:12;;;;;;;4.00;2.83;;;27.70;49.00;;;;;;6246332;22;20001;-69
2022/08/08 07:39:41;;;;;;;4.18;2.50;;;27.70;49.00;;;;;;6245785;22;20427;-71
2022/08/08 07:42:12;;;;;;;2.70;2.20;;;27.80;49.20;;;;;;6245870;22;20000;-71
2022/08/08 07:44:40;;;;;;;4.50;2.50;;;27.80;49.00;;;;;;6245398;22;20004;-70
2022/08/08 07:47:06;;;;;;;4.00;2.60;;;27.90;49.00;;;;;;6244474;22;20250;-74
2022/08/08 07:49:32;;;;;;;5.90;2.40;;;27.90;48.80;;;;;;6245534;22;19996;-72
2022/08/08 07:51:59;;;;;;;4.60;2.78;;;28.00;48.70;;;;;;6245775;22;20012;-68
2022/08/08 07:54:37;;;;;;;3.00;2.58;;;28.00;48.70;;;;;;6246200;22;20079;-68
2022/08/08 07:57:10;;;;;;;4.63;2.80;;;28.00;48.50;;;;;;6245311;22;20378;-69
2022/08/08 07:59:59;;;;;;;6.03;2.50;;;28.10;48.80;;;;;;6245749;23;20083;-68
2022/08/08 08:02:36;;;;;;;7.28;2.67;;;28.10;48.80;;;;;;6245285;23;20004;-68
2022/08/08 08:05:04;;;;;;;7.03;2.60;;;28.20;48.60;;;;;;6245672;22;20003;-69
2022/08/08 08:07:33;;;;;;;3.83;2.35;;;28.20;48.60;;;;;;6245512;22;20039;-75
2022/08/08 08:10:03;;;;;;;3.20;2.50;;;28.30;48.20;;;;;;6245375;22;20004;-74
2022/08/08 08:12:29;;;;;;;8.52;2.58;;;28.30;47.90;;;;;;6245188;22;20004;-75
2022/08/08 08:15:03;;;;;;;7.95;2.53;;;28.40;48.00;;;;;;6245420;22;20079;-74
2022/08/08 08:17:29;;;;;;;5.47;2.83;;;28.40;47.90;;;;;;6245513;22;20320;-69
2022/08/08 08:19:58;;;;;;;3.17;2.55;;;28.50;47.70;;;;;;6245220;23;20003;-69
2022/08/08 08:22:24;;;;;;;3.05;2.65;;;28.40;47.40;;;;;;6245269;22;20004;-73
2022/08/08 08:24:50;;;;;;;3.83;2.63;;;28.50;47.70;;;;;;6245269;22;20023;-67
2022/08/08 08:27:15;;;;;;;8.50;3.40;;;28.50;47.50;;;;;;6244898;22;20020;-72
2022/08/08 08:29:41;;;;;;;6.88;2.85;;;28.60;47.20;;;;;;6245451;23;19997;-73
2022/08/08 08:32:07;;;;;;;5.13;2.70;;;28.60;47.40;;;;;;6245342;23;20010;-75
2022/08/08 08:34:34;;;;;;;2.92;2.63;;;28.60;47.50;;;;;;6245285;22;20305;-67
2022/08/08 08:37:03;;;;;;;3.78;2.88;;;28.60;47.40;;;;;;6247713;22;20018;-68
2022/08/08 08:39:28;;;;;;;9.18;2.70;;;28.60;47.20;;;;;;6247306;23;20001;-68
2022/08/08 08:41:56;;;;;;;3.10;2.80;;;28.70;47.20;;;;;;6247120;22;20084;-70
2022/08/08 08:44:24;;;;;;;3.53;3.00;;;28.70;47.30;;;;;;6247151;22;20000;-75
2022/08/08 08:46:50;;;;;;;4.25;2.72;;;28.80;47.20;;;;;;6247426;22;20043;-68
2022/08/08 08:49:16;;;;;;;4.63;3.00;;;28.80;47.20;;;;;;6247540;22;19996;-68
2022/08/08 08:51:43;;;;;;;6.75;2.75;;;28.80;47.00;;;;;;6247246;23;20013;-76
2022/08/08 08:54:11;;;;;;;6.55;3.00;;;28.90;47.20;;;;;;6246740;22;20008;-71
2022/08/08 08:56:38;;;;;;;7.85;2.95;;;29.00;47.10;;;;;;6247242;22;20008;-74
2022/08/08 08:59:04;;;;;;;6.57;2.80;;;29.00;46.90;;;;;;6247856;22;20004;-68
2022/08/08 09:01:37;;;;;;;3.80;3.25;;;29.00;46.90;;;;;;6247534;22;20040;-68
2022/08/08 09:04:12;;;;;;;5.00;2.88;;;29.10;47.00;;;;;;6247275;22;20046;-74
2022/08/08 09:06:41;;;;;;;4.60;2.80;;;29.20;46.80;;;;;;6246846;22;20015;-72
2022/08/08 09:09:19;;;;;;;5.20;3.20;;;29.20;46.60;;;;;;6246346;22;20021;-68
2022/08/08 09:11:46;;;;;;;6.82;3.00;;;29.20;46.60;;;;;;6246499;22;20012;-69
2022/08/08 09:14:14;;;;;;;4.40;2.88;;;29.20;46.60;;;;;;6245987;22;19996;-69
2022/08/08 09:16:40;;;;;;;5.43;2.75;;;29.30;46.60;;;;;;6247296;22;20008;-76
2022/08/08 09:19:05;;;;;;;6.35;2.83;;;29.30;46.50;;;;;;6247075;23;20000;-76
2022/08/08 09:21:32;;;;;;;12.10;3.25;;;29.30;46.50;;;;;;6246031;23;20019;-76
2022/08/08 09:23:59;;;;;;;6.75;2.63;;;29.40;46.40;;;;;;6246856;22;20031;-76
2022/08/08 09:26:40;;;;;;;6.97;2.78;;;29.40;46.30;;;;;;6246691;22;20023;-68
2022/08/08 09:29:07;;;;;;;4.73;2.83;;;29.40;46.30;;;;;;6247541;22;20061;-69
2022/08/08 09:32:02;;;;;;;9.38;2.90;;;29.40;46.10;;;;;;6247687;22;20008;-69
2022/08/08 09:34:31;;;;;;;6.00;3.15;;;29.50;46.40;;;;;;6247692;22;20000;-69
2022/08/08 09:37:09;;;;;;;4.70;2.80;;;29.50;46.00;;;;;;6247410;22;20510;-68
2022/08/08 09:39:49;;;;;;;4.07;2.78;;;29.60;46.00;;;;;;6247193;22;20394;-76
2022/08/08 09:42:21;;;;;;;8.80;2.80;;;29.60;46.00;;;;;;6247448;22;20090;-76
2022/08/08 09:44:53;;;;;;;8.10;2.80;;;29.60;46.00;;;;;;6247274;22;20004;-76
2022/08/08 09:47:22;;;;;;;6.70;3.50;;;29.70;45.80;;;;;;6246990;23;20347;-69
2022/08/08 09:49:48;;;;;;;5.10;2.63;;;29.70;45.60;;;;;;6247271;22;20006;-69
2022/08/08 09:52:21;;;;;;;6.30;3.00;;;29.70;45.60;;;;;;6247443;22;20378;-69
2022/08/08 09:54:49;;;;;;;6.03;2.90;;;29.80;45.70;;;;;;6247102;22;20003;-68
2022/08/08 09:57:21;;;;;;;7.32;3.20;;;29.80;45.60;;;;;;6247023;23;20004;-68
2022/08/08 09:59:51;;;;;;;5.45;2.92;;;29.90;45.50;;;;;;6247072;22;20093;-71
2022/08/08 10:02:25;;;;;;;9.10;3.25;;;29.90;45.30;;;;;;6247315;23;20004;-71
2022/08/08 10:04:52;;;;;;;4.65;2.65;;;29.90;45.20;;;;;;6247443;22;20004;-69
2022/08/08 10:07:17;;;;;;;4.28;3.10;;;30.00;45.40;;;;;;6247064;22;20012;-71
2022/08/08 10:09:48;;;;;;;4.30;2.83;;;30.00;45.20;;;;;;6247039;23;20516;-68
2022/08/08 10:12:15;;;;;;;11.10;3.55;;;30.10;45.10;;;;;;6247186;22;20004;-68
2022/08/08 10:14:40;;;;;;;3.50;2.92;;;30.10;45.00;;;;;;6247084;22;19997;-69
2022/08/08 10:17:09;;;;;;;11.73;3.75;;;30.10;44.90;;;;;;6247295;23;20012;-76
2022/08/08 10:19:36;;;;;;;8.23;3.28;;;30.20;44.90;;;;;;6246864;22;20514;-68
2022/08/08 10:22:06;;;;;;;4.82;2.97;;;30.20;44.80;;;;;;6247227;22;20004;-68
2022/08/08 10:24:33;;;;;;;6.32;3.20;;;30.20;44.90;;;;;;6247195;22;20008;-76
2022/08/08 10:27:02;;;;;;;5.68;3.40;;;30.20;44.90;;;;;;6246772;22;20048;-75
2022/08/08 10:29:39;;;;;;;5.90;3.35;;;30.30;44.80;;;;;;6246748;22;20423;-75
2022/08/08 10:34:57;;;;;;;4.25;3.45;;;30.30;44.50;;;;;;6246758;23;20015;-76
2022/08/08 10:37:32;;;;;;;8.43;3.35;;;30.40;44.50;;;;;;6246831;22;20008;-74
2022/08/08 10:40:00;;;;;;;4.60;3.40;;;30.40;44.50;;;;;;6246598;22;20010;-75
2022/08/08 10:42:34;;;;;;;8.25;3.92;;;30.40;44.60;;;;;;6246663;22;20008;-76
2022/08/08 10:45:07;;;;;;;9.55;3.72;;;30.40;44.20;;;;;;6246547;22;20004;-68
2022/08/08 10:47:33;;;;;;;11.25;3.70;;;30.40;44.10;;;;;;6246437;22;20058;-69
2022/08/08 10:50:00;;;;;;;5.10;3.67;;;30.40;44.90;;;;;;6246954;22;20008;-68
2022/08/08 10:52:32;;;;;;;5.25;3.53;;;30.40;44.20;;;;;;6246711;22;20442;-68
2022/08/08 10:55:18;;;;;;;15.70;4.65;;;30.40;44.20;;;;;;6246362;22;20430;-69
2022/08/08 10:57:48;;;;;;;5.03;3.53;;;30.50;44.30;;;;;;6246363;22;20008;-75
2022/08/08 11:00:24;;;;;;;10.10;4.20;;;30.40;44.20;;;;;;6246648;22;19996;-76
2022/08/08 11:02:51;;;;;;;10.07;3.97;;;30.40;44.10;;;;;;6246863;22;20078;-76
2022/08/08 11:05:17;;;;;;;11.32;4.10;;;30.50;44.00;;;;;;6246325;22;20004;-73
2022/08/08 11:07:49;;;;;;;5.72;3.88;;;30.50;43.90;;;;;;6246116;22;20442;-76
2022/08/08 11:10:17;;;;;;;7.65;4.18;;;30.60;44.00;;;;;;6246978;22;20004;-76
2022/08/08 11:12:54;;;;;;;5.43;4.03;;;30.50;43.80;;;;;;6246286;22;20434;-77
2022/08/08 11:15:25;;;;;;;7.07;3.90;;;30.60;43.70;;;;;;6245356;22;20015;-77
2022/08/08 11:17:51;;;;;;;7.45;4.20;;;30.70;43.80;;;;;;6245697;22;20419;-68
2022/08/08 11:20:19;;;;;;;9.20;3.80;;;30.70;43.80;;;;;;6246141;22;20012;-68
2022/08/08 11:22:58;;;;;;;9.35;4.82;;;30.70;43.80;;;;;;6246029;22;20004;-69
2022/08/08 11:25:29;;;;;;;9.68;4.38;;;30.70;43.70;;;;;;6244757;22;20003;-68
2022/08/08 11:27:59;;;;;;;5.72;4.22;;;30.70;43.60;;;;;;6242614;22;20027;-69
2022/08/08 11:30:28;;;;;;;7.05;4.28;;;30.70;43.70;;;;;;6242808;22;20019;-67
2022/08/08 11:32:57;;;;;;;9.88;4.22;;;30.70;43.60;;;;;;6242043;23;20098;-70
2022/08/08 11:35:24;;;;;;;9.85;4.70;;;30.80;43.70;;;;;;6241797;22;20054;-74
2022/08/08 11:37:50;;;;;;;5.03;4.53;;;30.80;43.80;;;;;;6243970;22;20004;-67
2022/08/08 11:40:16;;;;;;;9.45;4.72;;;30.80;43.60;;;;;;6245277;23;20023;-69
2022/08/08 11:42:42;;;;;;;6.57;4.65;;;30.90;43.60;;;;;;6245685;23;20000;-69
2022/08/08 11:45:09;;;;;;;7.75;4.55;;;31.00;43.60;;;;;;6245846;22;20018;-71
2022/08/08 11:47:37;;;;;;;5.45;4.50;;;31.10;43.40;;;;;;6245704;22;20091;-68
2022/08/08 11:50:07;;;;;;;6.95;4.43;;;31.10;43.30;;;;;;6246231;22;19997;-69
2022/08/08 11:52:35;;;;;;;6.43;4.60;;;31.10;43.20;;;;;;6246322;22;20000;-69
2022/08/08 11:55:01;;;;;;;11.55;5.47;;;31.10;43.00;;;;;;6246117;22;20082;-69
2022/08/08 11:57:29;;;;;;;7.55;4.38;;;31.20;42.90;;;;;;6246101;22;20007;-68
2022/08/08 11:59:57;;;;;;;9.88;4.30;;;31.20;42.90;;;;;;6245838;22;19996;-68
2022/08/08 12:02:26;;;;;;;9.32;4.55;;;31.20;42.90;;;;;;6241814;22;20004;-74
2022/08/08 12:05:10;;;;;;;10.60;4.78;;;31.20;43.00;;;;;;6242610;22;20179;-69
2022/08/08 12:07:49;;;;;;;6.18;4.53;;;31.20;43.00;;;;;;6242421;22;20019;-77
2022/08/08 12:10:17;;;;;;;5.68;4.28;;;31.30;43.00;;;;;;6245392;22;20008;-77
2022/08/08 12:12:45;;;;;;;6.95;4.10;;;31.40;42.70;;;;;;6246048;22;20015;-77
2022/08/08 12:15:11;;;;;;;10.20;4.18;;;31.40;43.10;;;;;;6246233;22;20012;-77
2022/08/08 12:17:39;;;;;;;8.13;4.50;;;31.50;42.50;;;;;;6245457;22;20004;-69
2022/08/08 12:20:07;;;;;;;5.68;4.47;;;31.50;42.40;;;;;;6245776;22;20055;-69
2022/08/08 12:22:44;;;;;;;6.15;4.07;;;31.50;42.90;;;;;;6245439;22;20435;-78
2022/08/08 12:25:25;;;;;;;8.15;4.55;;;31.50;42.30;;;;;;6245409;22;20019;-77
2022/08/08 12:28:05;;;;;;;6.82;4.40;;;31.50;42.20;;;;;;6245637;22;20061;-77
2022/08/08 12:30:31;;;;;;;4.75;4.25;;;31.60;42.10;;;;;;6245252;22;20067;-69
2022/08/08 12:33:00;;;;;;;6.68;4.30;;;31.50;42.00;;;;;;6244992;22;20109;-68
2022/08/08 12:35:37;;;;;;;6.25;4.40;;;31.50;42.10;;;;;;6245147;22;20504;-77
2022/08/08 12:38:07;;;;;;;9.60;4.25;;;31.50;42.10;;;;;;6244282;22;20445;-71
2022/08/08 12:40:43;;;;;;;8.97;4.27;;;31.50;42.00;;;;;;6245361;22;20007;-77
2022/08/08 12:43:11;;;;;;;7.68;4.60;;;31.50;42.00;;;;;;6245178;23;20004;-77
2022/08/08 12:45:39;;;;;;;8.02;4.57;;;31.50;42.10;;;;;;6243502;23;20008;-69
2022/08/08 12:48:26;;;;;;;7.38;4.72;;;31.50;41.90;;;;;;6242989;22;20027;-69
2022/08/08 12:50:56;;;;;;;5.25;4.47;;;31.50;41.90;;;;;;6241873;23;20391;-72
2022/08/08 12:53:45;;;;;;;6.90;4.80;;;31.50;41.90;;;;;;6244460;22;20334;-75
2022/08/08 12:56:11;;;;;;;9.00;4.55;;;31.60;41.90;;;;;;6240704;23;20446;-68
2022/08/08 12:59:19;;;;;;;6.85;4.30;;;31.70;41.90;;;;;;6245553;23;20036;-77
2022/08/08 13:01:56;;;;;;;7.30;4.70;;;31.70;41.90;;;;;;6245546;22;20027;-68
2022/08/08 13:04:25;;;;;;;6.63;4.70;;;31.70;41.70;;;;;;6245644;22;20437;-69
2022/08/08 13:07:08;;;;;;;11.00;4.78;;;31.70;41.60;;;;;;6245152;22;20012;-75
2022/08/08 13:09:38;;;;;;;5.07;4.55;;;31.70;41.70;;;;;;6245418;22;20023;-76
2022/08/08 13:12:16;;;;;;;6.18;4.30;;;31.80;41.80;;;;;;6245546;22;20023;-76
2022/08/08 13:14:45;;;;;;;7.05;4.22;;;31.80;41.70;;;;;;6245062;22;20011;-76
2022/08/08 13:17:12;;;;;;;5.47;4.47;;;31.80;41.50;;;;;;6245609;22;20032;-68
2022/08/08 13:19:37;;;;;;;6.25;4.63;;;31.80;41.30;;;;;;6244600;22;20010;-68
2022/08/08 13:22:03;;;;;;;6.22;4.70;;;31.90;41.40;;;;;;6246644;22;20027;-68
2022/08/08 13:24:30;;;;;;;8.50;4.45;;;31.90;41.50;;;;;;6246351;22;20000;-72